Time;durP1;ratioP1;P1;durP2;ratioP2;P2;SDS_P1;SDS_P2;PMS_P1;PMS_P2;Temp;Humidity;BMP_temperature;BMP_pressure;BME280_temperature;BME280_humidity;BME280_pressure;Samples;Min_cycle;Max_cycle;Signal;HPM_P1;HPM_P2
2022/11/11 00:00:06;;;;;;;11.70;6.45;;;;;;;;;;5033820;28;20139;-77
2022/11/11 00:02:32;;;;;;;14.95;6.60;;;;;;;;;;5033951;28;20073;-77
2022/11/11 00:04:58;;;;;;;10.98;6.70;;;;;;;;;;5032974;28;20085;-77
2022/11/11 00:07:24;;;;;;;14.82;7.30;;;;;;;;;;5021291;28;20053;-77
2022/11/11 00:09:50;;;;;;;11.77;7.03;;;;;;;;;;5029124;28;20191;-77
2022/11/11 00:12:16;;;;;;;11.90;6.80;;;;;;;;;;5025075;28;20124;-77
2022/11/11 00:14:42;;;;;;;13.25;8.30;;;;;;;;;;5027120;28;20056;-77
2022/11/11 00:25:25;;;;;;;14.82;7.10;;;;;;;;;;5025199;28;20037;-77
2022/11/11 00:27:51;;;;;;;14.95;8.20;;;;;;;;;;5022849;28;20045;-77
2022/11/11 00:30:27;;;;;;;;;;;;;;;;;;5031450;28;20049;-77
2022/11/11 00:33:03;;;;;;;15.48;7.07;;;;;;;;;;5025716;28;20433;-77
2022/11/11 00:41:09;;;;;;;12.25;8.05;;;;;;;;;;5051670;28;20045;-77
2022/11/11 00:43:35;;;;;;;15.10;8.05;;;;;;;;;;5033856;28;20102;-77
2022/11/11 00:51:30;;;;;;;13.43;8.25;;;;;;;;;;5026386;28;20050;-78
2022/11/11 00:53:56;;;;;;;17.58;8.60;;;;;;;;;;5024192;28;20052;-77
2022/11/11 00:56:23;;;;;;;17.33;9.27;;;;;;;;;;5015040;28;20038;-77
2022/11/11 00:58:49;;;;;;;16.38;9.57;;;;;;;;;;4997991;28;20103;-77
2022/11/11 01:01:15;;;;;;;13.10;9.18;;;;;;;;;;5015598;28;20046;-77
2022/11/11 01:03:41;;;;;;;19.17;9.43;;;;;;;;;;5037074;28;20049;-77
2022/11/11 01:06:09;;;;;;;18.95;10.50;;;;;;;;;;5036412;28;20046;-77
2022/11/11 01:08:35;;;;;;;16.65;9.15;;;;;;;;;;5016780;28;20045;-77
2022/11/11 01:11:01;;;;;;;17.48;9.65;;;;;;;;;;5040594;28;20134;-77
2022/11/11 01:13:27;;;;;;;17.02;9.40;;;;;;;;;;5032646;28;20087;-77
2022/11/11 01:15:57;;;;;;;17.67;9.50;;;;;;;;;;5028356;28;20121;-77
2022/11/11 01:18:24;;;;;;;22.67;10.15;;;;;;;;;;5026174;28;20085;-77
2022/11/11 01:21:00;;;;;;;17.65;9.82;;;;;;;;;;5035647;28;20049;-77
2022/11/11 01:23:26;;;;;;;18.15;9.63;;;;;;;;;;5035168;28;20386;-77
2022/11/11 01:25:52;;;;;;;16.77;8.88;;;;;;;;;;5017969;28;20176;-77
2022/11/11 01:28:18;;;;;;;16.88;9.55;;;;;;;;;;5022596;28;20428;-77
2022/11/11 01:30:44;;;;;;;17.27;9.63;;;;;;;;;;5024024;28;20053;-77
2022/11/11 01:33:11;;;;;;;16.25;9.85;;;;;;;;;;5032589;28;20442;-77
2022/11/11 01:35:38;;;;;;;18.00;9.43;;;;;;;;;;5034208;28;20053;-77
2022/11/11 01:38:05;;;;;;;17.73;10.48;;;;;;;;;;5005319;28;20439;-77
2022/11/11 01:40:31;;;;;;;15.35;9.75;;;;;;;;;;5036291;28;20046;-77
2022/11/11 01:43:03;;;;;;;21.35;10.15;;;;;;;;;;5034532;28;20056;-77
2022/11/11 01:45:48;;;;;;;19.50;10.32;;;;;;;;;;5016789;28;20049;-77
2022/11/11 01:51:06;;;;;;;18.65;9.77;;;;;;;;;;5036655;28;20045;-77
2022/11/11 01:53:32;;;;;;;20.77;10.07;;;;;;;;;;5019479;28;20045;-77
2022/11/11 01:56:00;;;;;;;18.95;9.82;;;;;;;;;;5016752;28;20077;-77
2022/11/11 01:58:26;;;;;;;16.08;9.38;;;;;;;;;;5019398;28;20041;-77
2022/11/11 02:00:52;;;;;;;18.02;9.40;;;;;;;;;;5025586;28;20049;-77
2022/11/11 02:03:19;;;;;;;17.30;9.73;;;;;;;;;;5036249;28;20052;-77
2022/11/11 02:05:45;;;;;;;17.92;10.35;;;;;;;;;;5036740;28;20099;-77
2022/11/11 02:08:11;;;;;;;16.48;9.32;;;;;;;;;;5036430;28;20369;-77
2022/11/11 02:10:39;;;;;;;13.07;9.00;;;;;;;;;;5036319;28;20450;-77
2022/11/11 02:15:50;;;;;;;15.10;8.52;;;;;;;;;;5036224;28;20049;-77
2022/11/11 02:18:16;;;;;;;16.42;9.48;;;;;;;;;;5035622;28;20040;-77
2022/11/11 02:20:44;;;;;;;16.30;8.68;;;;;;;;;;5026088;28;20050;-77
2022/11/11 02:23:12;;;;;;;18.65;9.38;;;;;;;;;;5025423;28;20451;-77
2022/11/11 02:25:40;;;;;;;14.77;8.80;;;;;;;;;;5031646;28;20041;-77
2022/11/11 02:28:07;;;;;;;19.73;8.93;;;;;;;;;;5034997;28;20056;-77
2022/11/11 02:30:33;;;;;;;17.90;9.88;;;;;;;;;;5026626;28;20092;-77
2022/11/11 02:32:59;;;;;;;20.70;9.80;;;;;;;;;;5019893;28;20042;-77
2022/11/11 02:35:36;;;;;;;14.30;8.23;;;;;;;;;;5010588;28;20094;-77
2022/11/11 02:38:08;;;;;;;15.25;9.75;;;;;;;;;;5031596;28;20050;-77
2022/11/11 02:41:55;;;;;;;18.60;9.07;;;;;;;;;;5033327;28;20073;-77
2022/11/11 02:43:29;;;;;;;14.93;9.38;;;;;;;;;;5028785;28;20132;-77
2022/11/11 02:45:55;;;;;;;18.38;9.32;;;;;;;;;;5017469;28;20064;-77
2022/11/11 02:48:21;;;;;;;16.70;9.90;;;;;;;;;;5017718;28;20102;-77
2022/11/11 02:50:48;;;;;;;16.08;9.25;;;;;;;;;;5023985;28;20045;-77
2022/11/11 02:53:14;;;;;;;20.58;10.38;;;;;;;;;;4984719;28;20400;-77
2022/11/11 02:55:40;;;;;;;15.50;10.32;;;;;;;;;;5016036;28;20121;-77
2022/11/11 02:58:06;;;;;;;18.10;10.38;;;;;;;;;;5020861;28;20495;-77
2022/11/11 03:00:32;;;;;;;20.48;10.85;;;;;;;;;;5035470;28;20041;-77
2022/11/11 03:02:58;;;;;;;17.55;10.77;;;;;;;;;;5034792;28;20073;-77
2022/11/11 03:05:24;;;;;;;20.83;11.82;;;;;;;;;;5035639;28;20085;-77
2022/11/11 03:07:50;;;;;;;22.60;12.63;;;;;;;;;;5035319;28;20171;-77
2022/11/11 03:10:17;;;;;;;23.55;13.95;;;;;;;;;;5031103;28;20052;-77
2022/11/11 03:12:43;;;;;;;21.35;13.40;;;;;;;;;;5016669;28;20046;-77
2022/11/11 03:15:09;;;;;;;23.33;12.70;;;;;;;;;;5017424;28;20042;-77
2022/11/11 03:17:38;;;;;;;22.25;13.23;;;;;;;;;;5012720;28;20379;-77
2022/11/11 03:23:03;;;;;;;23.50;14.15;;;;;;;;;;5023895;28;20393;-77
2022/11/11 03:25:38;;;;;;;26.08;13.73;;;;;;;;;;5016789;28;20082;-77
2022/11/11 03:28:05;;;;;;;21.73;13.50;;;;;;;;;;5030682;28;20042;-77
2022/11/11 03:30:31;;;;;;;21.08;12.35;;;;;;;;;;5015365;28;20477;-77
2022/11/11 03:32:59;;;;;;;20.67;13.45;;;;;;;;;;4998203;28;20392;-77
2022/11/11 03:35:25;;;;;;;21.70;13.35;;;;;;;;;;5015884;28;20049;-77
2022/11/11 03:40:35;;;;;;;21.90;13.32;;;;;;;;;;5012197;28;20042;-77
2022/11/11 03:43:02;;;;;;;26.05;13.48;;;;;;;;;;5012884;28;20081;-77
2022/11/11 03:45:28;;;;;;;22.00;12.82;;;;;;;;;;5023828;28;20050;-77
2022/11/11 03:47:54;;;;;;;19.38;12.55;;;;;;;;;;5028692;28;20080;-77
2022/11/11 03:50:21;;;;;;;21.27;13.10;;;;;;;;;;5034987;28;20041;-77
2022/11/11 03:52:47;;;;;;;25.67;14.55;;;;;;;;;;5033382;28;20371;-77
2022/11/11 03:55:13;;;;;;;26.00;14.20;;;;;;;;;;5018097;28;20051;-77
2022/11/11 03:57:44;;;;;;;25.50;13.65;;;;;;;;;;5033952;28;20088;-77
2022/11/11 04:00:10;;;;;;;22.80;13.65;;;;;;;;;;5034040;28;20060;-77
2022/11/11 04:10:55;;;;;;;28.15;15.25;;;;;;;;;;5033659;28;20495;-77
2022/11/11 04:16:06;;;;;;;23.35;14.60;;;;;;;;;;5027002;28;20042;-77
2022/11/11 04:25:47;;;;;;;27.10;16.85;;;;;;;;;;5003563;28;20057;-77
2022/11/11 04:26:49;;;;;;;28.42;17.25;;;;;;;;;;5020090;28;20042;-77
2022/11/11 04:29:27;;;;;;;25.83;16.48;;;;;;;;;;5016941;28;20073;-77
2022/11/11 04:34:39;;;;;;;31.20;18.38;;;;;;;;;;5024631;28;20056;-77
2022/11/11 04:37:05;;;;;;;27.98;19.23;;;;;;;;;;5032843;28;20042;-77
2022/11/11 04:42:16;;;;;;;32.03;20.42;;;;;;;;;;5026431;28;20053;-77
2022/11/11 04:47:26;;;;;;;36.03;21.55;;;;;;;;;;5032927;28;20053;-77
2022/11/11 04:49:52;;;;;;;32.97;20.17;;;;;;;;;;5017042;28;20133;-77
2022/11/11 04:52:28;;;;;;;36.25;21.05;;;;;;;;;;5031786;28;20097;-77
2022/11/11 04:57:44;;;;;;;35.15;20.52;;;;;;;;;;5033027;28;20397;-77
2022/11/11 05:00:11;;;;;;;41.38;20.77;;;;;;;;;;5033347;28;20055;-77
2022/11/11 05:05:23;;;;;;;35.72;20.98;;;;;;;;;;5013630;28;20054;-77
2022/11/11 05:10:33;;;;;;;33.85;20.25;;;;;;;;;;5033275;28;20046;-77
2022/11/11 05:21:25;;;;;;;33.20;21.23;;;;;;;;;;5013230;28;20133;-77
2022/11/11 05:26:36;;;;;;;36.88;22.48;;;;;;;;;;5026619;28;20041;-77
2022/11/11 05:29:03;;;;;;;39.25;22.40;;;;;;;;;;5030930;28;20045;-77
2022/11/11 05:31:29;;;;;;;38.42;21.90;;;;;;;;;;5022722;28;20042;-77
2022/11/11 05:33:55;;;;;;;37.50;22.48;;;;;;;;;;5032782;28;20045;-77
2022/11/11 05:36:22;;;;;;;39.03;22.13;;;;;;;;;;5025695;28;20042;-77
2022/11/11 05:38:48;;;;;;;38.28;22.13;;;;;;;;;;5028719;28;20400;-77
2022/11/11 05:41:14;;;;;;;38.88;22.08;;;;;;;;;;5018829;28;20483;-77
2022/11/11 05:43:40;;;;;;;37.58;23.55;;;;;;;;;;5033216;28;20068;-77
2022/11/11 05:46:06;;;;;;;35.70;22.42;;;;;;;;;;5009423;28;20041;-78
2022/11/11 05:48:32;;;;;;;35.33;21.98;;;;;;;;;;5022867;28;20038;-78
2022/11/11 05:50:58;;;;;;;39.20;21.88;;;;;;;;;;5013698;28;20380;-78
2022/11/11 05:53:25;;;;;;;36.58;21.98;;;;;;;;;;5026919;28;20510;-78
2022/11/11 05:55:51;;;;;;;38.63;21.95;;;;;;;;;;5032688;28;20420;-77
2022/11/11 05:58:17;;;;;;;38.78;21.88;;;;;;;;;;5032628;28;20053;-77
2022/11/11 06:00:44;;;;;;;39.33;21.80;;;;;;;;;;5034035;28;20049;-77
2022/11/11 06:03:10;;;;;;;36.58;22.15;;;;;;;;;;5031914;28;20037;-77
2022/11/11 06:05:39;;;;;;;39.40;21.70;;;;;;;;;;5033859;28;20053;-77
2022/11/11 06:08:05;;;;;;;36.70;21.73;;;;;;;;;;5036036;28;20048;-77
2022/11/11 06:10:31;;;;;;;38.72;22.27;;;;;;;;;;5035690;28;20046;-77
2022/11/11 06:13:09;;;;;;;38.85;22.25;;;;;;;;;;5036237;28;20047;-77
2022/11/11 06:15:35;;;;;;;37.70;21.85;;;;;;;;;;5017961;28;20085;-77
2022/11/11 06:18:02;;;;;;;40.15;21.42;;;;;;;;;;5021434;28;20123;-77
2022/11/11 06:20:28;;;;;;;38.17;20.85;;;;;;;;;;5015387;28;20042;-77
2022/11/11 06:22:57;;;;;;;37.60;21.50;;;;;;;;;;5025925;28;20045;-78
2022/11/11 06:28:09;;;;;;;37.30;20.85;;;;;;;;;;5005449;28;20054;-78
2022/11/11 06:30:35;;;;;;;37.53;21.83;;;;;;;;;;5014579;28;20037;-78
2022/11/11 06:33:01;;;;;;;44.55;21.85;;;;;;;;;;5036471;28;20038;-77
2022/11/11 06:35:27;;;;;;;39.05;21.98;;;;;;;;;;5016750;28;20041;-77
2022/11/11 06:37:53;;;;;;;39.72;22.13;;;;;;;;;;5009802;28;20042;-77
2022/11/11 06:40:19;;;;;;;46.45;22.30;;;;;;;;;;5046087;28;20067;-77
2022/11/11 06:42:45;;;;;;;40.50;23.27;;;;;;;;;;5035506;28;20042;-77
2022/11/11 06:45:11;;;;;;;39.35;22.58;;;;;;;;;;5016246;28;20042;-77
2022/11/11 06:47:37;;;;;;;38.58;22.25;;;;;;;;;;5023846;28;20049;-78
2022/11/11 06:50:03;;;;;;;41.45;22.58;;;;;;;;;;5024226;28;20059;-79
2022/11/11 06:52:29;;;;;;;38.92;22.60;;;;;;;;;;5050223;28;20124;-77
2022/11/11 06:54:55;;;;;;;37.40;20.90;;;;;;;;;;5033919;28;20095;-78
2022/11/11 06:57:24;;;;;;;39.42;22.50;;;;;;;;;;5035638;28;20064;-78
2022/11/11 06:59:50;;;;;;;39.22;21.60;;;;;;;;;;5026858;28;20046;-78
2022/11/11 07:02:17;;;;;;;37.38;21.95;;;;;;;;;;5023511;28;20092;-78
2022/11/11 07:04:43;;;;;;;41.78;22.20;;;;;;;;;;5027136;28;20061;-77
2022/11/11 07:07:09;;;;;;;35.08;21.25;;;;;;;;;;5031396;28;20045;-77
2022/11/11 07:09:35;;;;;;;35.05;21.77;;;;;;;;;;5029202;28;20451;-77
2022/11/11 07:12:01;;;;;;;41.30;21.90;;;;;;;;;;5035223;28;20038;-78
2022/11/11 07:14:27;;;;;;;39.78;21.88;;;;;;;;;;5030342;28;20068;-78
2022/11/11 07:16:53;;;;;;;36.47;22.83;;;;;;;;;;5015212;28;20053;-78
2022/11/11 07:19:19;;;;;;;34.63;20.80;;;;;;;;;;5021664;28;20049;-78
2022/11/11 07:21:45;;;;;;;43.83;23.10;;;;;;;;;;5013859;28;20115;-78
2022/11/11 07:24:11;;;;;;;42.13;23.25;;;;;;;;;;5015500;28;20041;-78
2022/11/11 07:26:37;;;;;;;37.80;21.75;;;;;;;;;;5031129;28;20071;-78
2022/11/11 07:29:03;;;;;;;40.33;22.27;;;;;;;;;;5035106;28;20144;-77
2022/11/11 07:31:29;;;;;;;37.35;23.13;;;;;;;;;;5033360;28;20049;-77
2022/11/11 07:33:55;;;;;;;40.42;22.85;;;;;;;;;;5029832;28;20088;-77
2022/11/11 07:36:21;;;;;;;37.42;22.83;;;;;;;;;;5042936;28;20037;-77
2022/11/11 07:38:47;;;;;;;37.65;22.70;;;;;;;;;;5034077;28;20044;-77
2022/11/11 07:41:13;;;;;;;36.58;22.90;;;;;;;;;;5034318;28;20049;-77
2022/11/11 07:43:39;;;;;;;38.75;22.70;;;;;;;;;;5013531;28;20046;-77
2022/11/11 07:46:05;;;;;;;36.55;21.65;;;;;;;;;;5032245;28;20094;-77
2022/11/11 07:48:31;;;;;;;39.53;22.70;;;;;;;;;;5035016;28;20041;-77
2022/11/11 07:50:57;;;;;;;38.08;21.73;;;;;;;;;;5030489;28;20046;-77
2022/11/11 07:53:25;;;;;;;36.92;21.95;;;;;;;;;;5031178;28;20101;-78
2022/11/11 07:55:51;;;;;;;36.78;19.88;;;;;;;;;;5006892;28;20042;-78
2022/11/11 07:58:17;;;;;;;36.20;21.50;;;;;;;;;;5016024;28;20461;-78
2022/11/11 08:00:43;;;;;;;36.17;21.63;;;;;;;;;;5025019;28;20044;-77
2022/11/11 08:03:09;;;;;;;38.75;22.10;;;;;;;;;;5017060;28;20045;-77
2022/11/11 08:05:35;;;;;;;37.33;22.02;;;;;;;;;;5013545;28;20080;-77
2022/11/11 08:08:08;;;;;;;38.65;22.33;;;;;;;;;;5024700;28;20050;-77
2022/11/11 08:10:34;;;;;;;39.55;21.70;;;;;;;;;;5020220;28;20049;-77
2022/11/11 08:15:45;;;;;;;36.85;22.20;;;;;;;;;;5029002;28;20073;-79
2022/11/11 08:18:11;;;;;;;38.30;21.60;;;;;;;;;;5030225;28;20168;-79
2022/11/11 08:20:37;;;;;;;36.05;21.13;;;;;;;;;;5037603;28;20087;-82
2022/11/11 08:23:04;;;;;;;35.85;21.83;;;;;;;;;;5020259;28;20101;-79
2022/11/11 08:25:31;;;;;;;37.70;21.63;;;;;;;;;;5030641;28;20046;-79
2022/11/11 08:27:57;;;;;;;35.50;21.08;;;;;;;;;;5028150;28;20038;-78
2022/11/11 08:30:23;;;;;;;35.35;21.40;;;;;;;;;;5000313;28;20129;-78
2022/11/11 08:32:56;;;;;;;38.45;20.63;;;;;;;;;;5019949;28;20034;-78
2022/11/11 08:35:22;;;;;;;37.22;22.40;;;;;;;;;;5032372;28;20053;-78
2022/11/11 08:37:48;;;;;;;37.67;22.40;;;;;;;;;;5021193;28;20041;-78
2022/11/11 08:40:15;;;;;;;36.55;21.45;;;;;;;;;;5036543;28;20046;-78
2022/11/11 08:42:41;;;;;;;35.65;22.05;;;;;;;;;;5029041;28;20048;-79
2022/11/11 08:45:10;;;;;;;34.65;21.48;;;;;;;;;;5038638;28;20124;-79
2022/11/11 08:47:37;;;;;;;35.63;20.52;;;;;;;;;;5038832;28;20047;-79
2022/11/11 08:50:04;;;;;;;40.08;24.15;;;;;;;;;;5036915;28;20485;-79
2022/11/11 08:52:30;;;;;;;35.72;22.55;;;;;;;;;;5030871;28;20042;-79
2022/11/11 08:54:56;;;;;;;41.65;21.67;;;;;;;;;;5019457;28;20038;-79
2022/11/11 08:57:22;;;;;;;42.50;23.90;;;;;;;;;;5019776;28;20052;-79
2022/11/11 08:59:48;;;;;;;47.03;28.45;;;;;;;;;;5036353;28;20045;-79
2022/11/11 09:02:15;;;;;;;42.92;24.17;;;;;;;;;;5038532;28;20048;-79
2022/11/11 09:04:41;;;;;;;41.58;24.95;;;;;;;;;;5030848;28;20484;-79
2022/11/11 09:07:07;;;;;;;42.67;23.05;;;;;;;;;;5038144;28;20042;-79
2022/11/11 09:09:34;;;;;;;39.90;23.13;;;;;;;;;;5036133;28;20487;-79
2022/11/11 09:12:00;;;;;;;39.03;22.90;;;;;;;;;;5019602;28;20540;-79
2022/11/11 09:14:26;;;;;;;41.53;24.88;;;;;;;;;;5027874;28;20094;-79
2022/11/11 09:16:52;;;;;;;40.08;23.85;;;;;;;;;;5021170;28;20128;-79
2022/11/11 09:19:18;;;;;;;39.17;23.58;;;;;;;;;;5038903;28;20045;-79
2022/11/11 09:21:44;;;;;;;39.08;22.83;;;;;;;;;;5039419;28;20046;-79
2022/11/11 09:24:10;;;;;;;42.60;24.63;;;;;;;;;;5038795;28;20395;-79
2022/11/11 09:26:36;;;;;;;41.03;22.55;;;;;;;;;;5031110;28;20069;-79
2022/11/11 09:29:02;;;;;;;40.90;22.98;;;;;;;;;;5033983;28;20057;-79
2022/11/11 09:31:28;;;;;;;39.58;22.95;;;;;;;;;;5026421;28;20049;-79
2022/11/11 09:33:54;;;;;;;36.78;23.17;;;;;;;;;;5037122;28;20101;-79
2022/11/11 09:36:20;;;;;;;47.90;23.70;;;;;;;;;;5027877;28;20382;-79
2022/11/11 09:38:46;;;;;;;38.08;23.80;;;;;;;;;;5044166;28;20133;-79
2022/11/11 09:41:15;;;;;;;40.13;22.83;;;;;;;;;;5040508;28;20041;-79
2022/11/11 09:43:41;;;;;;;36.08;21.38;;;;;;;;;;5045351;28;20041;-79
2022/11/11 09:46:21;;;;;;;42.60;24.83;;;;;;;;;;5028266;28;20049;-79
2022/11/11 09:48:47;;;;;;;41.13;24.15;;;;;;;;;;5007485;28;20048;-79
2022/11/11 09:51:28;;;;;;;43.75;23.75;;;;;;;;;;5006748;28;20042;-79
2022/11/11 09:53:59;;;;;;;39.15;23.23;;;;;;;;;;5023557;28;20124;-79
2022/11/11 09:56:25;;;;;;;36.88;23.02;;;;;;;;;;5033594;28;20041;-79
2022/11/11 09:59:10;;;;;;;40.83;23.15;;;;;;;;;;5042205;28;20049;-79
2022/11/11 10:01:44;;;;;;;39.78;24.20;;;;;;;;;;5024296;28;20056;-79
2022/11/11 10:04:16;;;;;;;36.88;22.00;;;;;;;;;;5019131;28;20125;-79
2022/11/11 10:06:44;;;;;;;37.92;22.67;;;;;;;;;;5026805;28;20160;-80
2022/11/11 10:09:13;;;;;;;43.28;23.95;;;;;;;;;;5025933;28;20041;-79
2022/11/11 10:11:58;;;;;;;36.38;22.95;;;;;;;;;;5028244;28;20120;-79
2022/11/11 10:14:27;;;;;;;40.35;23.23;;;;;;;;;;5027714;28;20041;-79
2022/11/11 10:17:11;;;;;;;41.60;23.88;;;;;;;;;;5047149;28;20071;-78
2022/11/11 10:19:57;;;;;;;39.90;22.73;;;;;;;;;;5039459;28;20121;-78
2022/11/11 10:22:23;;;;;;;43.65;25.08;;;;;;;;;;5024102;28;20128;-78
2022/11/11 10:24:54;;;;;;;41.45;25.73;;;;;;;;;;5032417;28;20084;-78
2022/11/11 10:27:21;;;;;;;41.33;24.05;;;;;;;;;;5024171;28;20565;-78
2022/11/11 10:29:48;;;;;;;43.25;25.50;;;;;;;;;;5016062;28;20077;-78
2022/11/11 10:32:20;;;;;;;53.65;26.38;;;;;;;;;;4999098;28;20649;-78
2022/11/11 10:34:46;;;;;;;40.40;23.13;;;;;;;;;;5016176;28;20049;-78
2022/11/11 10:37:18;;;;;;;39.35;23.92;;;;;;;;;;5015873;28;20376;-78
2022/11/11 10:40:02;;;;;;;45.42;26.42;;;;;;;;;;5016363;28;20085;-78
2022/11/11 10:42:28;;;;;;;43.03;24.60;;;;;;;;;;5001762;28;20046;-79
2022/11/11 10:44:58;;;;;;;38.38;23.50;;;;;;;;;;5017022;28;20112;-79
2022/11/11 10:47:30;;;;;;;43.13;25.40;;;;;;;;;;5032329;28;20057;-79
2022/11/11 10:49:56;;;;;;;35.90;22.27;;;;;;;;;;5015494;28;20046;-79
2022/11/11 10:52:25;;;;;;;40.75;24.80;;;;;;;;;;5017483;28;20050;-79
2022/11/11 10:55:21;;;;;;;41.70;24.10;;;;;;;;;;5003112;28;20052;-80
2022/11/11 10:57:52;;;;;;;35.97;22.73;;;;;;;;;;5009651;28;20053;-81
2022/11/11 11:00:19;;;;;;;40.10;24.08;;;;;;;;;;4999598;28;20046;-79
2022/11/11 11:02:55;;;;;;;35.78;23.05;;;;;;;;;;5016692;28;20049;-80
2022/11/11 11:05:21;;;;;;;42.03;24.17;;;;;;;;;;5020027;28;20076;-77
2022/11/11 11:07:48;;;;;;;40.80;24.70;;;;;;;;;;5029171;28;20083;-76
2022/11/11 11:10:20;;;;;;;33.13;21.10;;;;;;;;;;5035597;28;20136;-76
2022/11/11 11:12:52;;;;;;;35.90;22.85;;;;;;;;;;5037370;28;20101;-77
2022/11/11 11:15:25;;;;;;;36.35;22.45;;;;;;;;;;5039468;28;20052;-77
2022/11/11 11:17:58;;;;;;;34.28;21.58;;;;;;;;;;5023137;28;20053;-77
2022/11/11 11:20:24;;;;;;;39.42;24.20;;;;;;;;;;5034022;28;20479;-77
2022/11/11 11:22:52;;;;;;;41.70;24.08;;;;;;;;;;5039796;28;20047;-77
2022/11/11 11:25:19;;;;;;;38.08;22.85;;;;;;;;;;5037017;28;20120;-77
2022/11/11 11:27:46;;;;;;;35.83;22.45;;;;;;;;;;5017183;28;20053;-78
2022/11/11 11:30:14;;;;;;;34.88;21.80;;;;;;;;;;5038637;28;20049;-79
2022/11/11 11:32:42;;;;;;;38.30;23.35;;;;;;;;;;5054635;28;20080;-79
2022/11/11 11:35:09;;;;;;;33.25;21.13;;;;;;;;;;5026227;28;20409;-78
2022/11/11 11:37:48;;;;;;;35.08;20.30;;;;;;;;;;5035531;28;20539;-78
2022/11/11 11:40:14;;;;;;;30.05;19.98;;;;;;;;;;5035606;28;20045;-78
2022/11/11 11:42:40;;;;;;;33.05;20.38;;;;;;;;;;5035124;28;20400;-78
2022/11/11 11:45:19;;;;;;;31.38;20.05;;;;;;;;;;5018043;28;20049;-78
2022/11/11 11:47:51;;;;;;;33.50;20.67;;;;;;;;;;5035718;28;20395;-79
2022/11/11 11:50:35;;;;;;;34.50;20.42;;;;;;;;;;5033962;28;20048;-78
2022/11/11 11:53:11;;;;;;;32.88;19.73;;;;;;;;;;4997926;28;20053;-78
2022/11/11 11:55:39;;;;;;;32.05;20.98;;;;;;;;;;5014603;28;20068;-79
2022/11/11 11:58:20;;;;;;;30.52;19.25;;;;;;;;;;5022845;28;20168;-78
2022/11/11 12:01:07;;;;;;;32.15;20.90;;;;;;;;;;5015448;28;20046;-79
2022/11/11 12:03:43;;;;;;;34.97;20.50;;;;;;;;;;5025511;28;20069;-79
2022/11/11 12:06:21;;;;;;;32.63;19.55;;;;;;;;;;5033758;28;20053;-79
2022/11/11 12:09:20;;;;;;;33.33;21.08;;;;;;;;;;5035191;28;20052;-79
2022/11/11 12:12:05;;;;;;;32.90;20.48;;;;;;;;;;4974341;28;20051;-79
2022/11/11 12:14:49;;;;;;;35.22;20.77;;;;;;;;;;4974089;28;20513;-78
2022/11/11 12:17:30;;;;;;;32.35;20.05;;;;;;;;;;4974003;28;20095;-78
2022/11/11 12:20:13;;;;;;;30.88;20.73;;;;;;;;;;4974559;28;20042;-78
2022/11/11 12:22:58;;;;;;;32.22;20.55;;;;;;;;;;4973308;28;20059;-77
2022/11/11 12:25:26;;;;;;;32.47;20.38;;;;;;;;;;4972840;28;20055;-77
2022/11/11 12:28:02;;;;;;;30.90;20.00;;;;;;;;;;4970371;28;20139;-79
2022/11/11 12:30:29;;;;;;;33.28;20.50;;;;;;;;;;4965848;28;20075;-79
2022/11/11 12:33:05;;;;;;;35.67;21.90;;;;;;;;;;4969347;28;20042;-79
2022/11/11 12:35:31;;;;;;;35.88;22.98;;;;;;;;;;4960675;28;20047;-79
2022/11/11 12:38:19;;;;;;;39.90;23.83;;;;;;;;;;4961611;28;21779;-79
2022/11/11 12:40:51;;;;;;;43.95;27.02;;;;;;;;;;4966300;28;20047;-79
2022/11/11 12:43:20;;;;;;;44.00;26.52;;;;;;;;;;4959342;28;20113;-79
2022/11/11 12:45:56;;;;;;;36.45;23.90;;;;;;;;;;4959939;28;20405;-79
2022/11/11 12:48:25;;;;;;;39.22;23.77;;;;;;;;;;5019585;28;20113;-79
2022/11/11 12:50:54;;;;;;;32.40;20.83;;;;;;;;;;5023310;28;20062;-79
2022/11/11 12:53:33;;;;;;;32.50;20.80;;;;;;;;;;5021622;28;20455;-79
2022/11/11 12:56:01;;;;;;;33.17;21.48;;;;;;;;;;5028388;28;20048;-79
2022/11/11 12:58:51;;;;;;;32.63;20.50;;;;;;;;;;5025435;28;20038;-79
2022/11/11 13:01:37;;;;;;;30.98;20.67;;;;;;;;;;5005478;28;20052;-79
2022/11/11 13:04:10;;;;;;;31.35;19.58;;;;;;;;;;5005797;28;20056;-79
2022/11/11 13:07:02;;;;;;;28.15;19.10;;;;;;;;;;5041680;28;20513;-79
2022/11/11 13:09:28;;;;;;;29.50;18.75;;;;;;;;;;5044984;28;20084;-79
2022/11/11 13:12:04;;;;;;;33.05;20.90;;;;;;;;;;5051665;28;20048;-79
2022/11/11 13:14:30;;;;;;;;;;;;;;;;;;5028874;28;20042;-79
2022/11/11 13:16:59;;;;;;;29.98;18.67;;;;;;;;;;5030050;28;19921;-79
2022/11/11 13:19:33;;;;;;;30.10;19.17;;;;;;;;;;5037115;28;20061;-79
2022/11/11 13:22:07;;;;;;;29.48;19.42;;;;;;;;;;5028344;28;20052;-79
2022/11/11 13:24:34;;;;;;;36.15;21.08;;;;;;;;;;5039905;28;20483;-79
2022/11/11 13:27:04;;;;;;;31.08;19.45;;;;;;;;;;5035156;28;20085;-79
2022/11/11 13:29:53;;;;;;;29.38;17.85;;;;;;;;;;5032452;28;20519;-79
2022/11/11 13:32:22;;;;;;;30.75;19.20;;;;;;;;;;5019367;28;20085;-79
2022/11/11 13:34:49;;;;;;;32.30;20.13;;;;;;;;;;5039299;28;20044;-79
2022/11/11 13:37:21;;;;;;;29.25;17.83;;;;;;;;;;5038864;28;20591;-78
2022/11/11 13:39:48;;;;;;;25.58;16.75;;;;;;;;;;5036850;28;20472;-79
2022/11/11 13:42:20;;;;;;;29.17;18.00;;;;;;;;;;5037597;28;20065;-78
2022/11/11 13:44:46;;;;;;;26.90;17.63;;;;;;;;;;5035885;28;20120;-78
2022/11/11 13:47:17;;;;;;;28.73;18.15;;;;;;;;;;5018487;28;20448;-78
2022/11/11 13:49:46;;;;;;;28.95;18.27;;;;;;;;;;5017824;28;20655;-78
2022/11/11 13:52:23;;;;;;;28.98;19.10;;;;;;;;;;5018259;28;20354;-78
2022/11/11 13:54:51;;;;;;;27.42;18.35;;;;;;;;;;5018792;28;20461;-78
2022/11/11 13:57:22;;;;;;;31.40;17.60;;;;;;;;;;5025567;28;20096;-78
2022/11/11 13:59:59;;;;;;;27.27;17.95;;;;;;;;;;5029100;28;20041;-78
2022/11/11 14:02:27;;;;;;;31.58;18.85;;;;;;;;;;5032931;28;20046;-76
2022/11/11 14:05:07;;;;;;;26.23;17.98;;;;;;;;;;5017957;28;20057;-78
2022/11/11 14:07:48;;;;;;;28.02;18.13;;;;;;;;;;5022325;28;20116;-79
2022/11/11 14:10:17;;;;;;;29.35;18.42;;;;;;;;;;5021244;28;20459;-79
2022/11/11 14:12:46;;;;;;;27.23;17.77;;;;;;;;;;5025457;28;20045;-79
2022/11/11 14:15:31;;;;;;;32.88;19.52;;;;;;;;;;5044063;28;20412;-78
2022/11/11 14:17:57;;;;;;;27.10;16.95;;;;;;;;;;5041881;28;20045;-78
2022/11/11 14:20:32;;;;;;;28.40;16.98;;;;;;;;;;5025027;28;20057;-78
2022/11/11 14:23:22;;;;;;;25.42;17.77;;;;;;;;;;5040693;28;20492;-79
2022/11/11 14:25:48;;;;;;;26.13;17.23;;;;;;;;;;5022635;28;20050;-77
2022/11/11 14:28:27;;;;;;;29.13;18.02;;;;;;;;;;5016290;28;20042;-78
2022/11/11 14:30:54;;;;;;;28.35;17.33;;;;;;;;;;4998928;28;20042;-78
2022/11/11 14:33:26;;;;;;;26.40;16.10;;;;;;;;;;5016942;28;20042;-78
2022/11/11 14:36:17;;;;;;;28.23;16.88;;;;;;;;;;5017679;28;20045;-77
2022/11/11 14:38:51;;;;;;;26.73;16.60;;;;;;;;;;5031469;28;20075;-77
2022/11/11 14:41:36;;;;;;;28.73;17.92;;;;;;;;;;5024275;28;20045;-77
2022/11/11 14:44:37;;;;;;;28.92;17.35;;;;;;;;;;5037105;28;20052;-77
2022/11/11 14:47:06;;;;;;;29.17;17.10;;;;;;;;;;4994063;28;20039;-77
2022/11/11 14:49:44;;;;;;;26.23;16.40;;;;;;;;;;5030068;28;20060;-77
2022/11/11 14:52:22;;;;;;;29.58;17.20;;;;;;;;;;5031827;28;20049;-77
2022/11/11 14:54:53;;;;;;;25.27;16.27;;;;;;;;;;5028063;28;20404;-76
2022/11/11 14:57:21;;;;;;;26.50;16.83;;;;;;;;;;5014597;28;20057;-77
2022/11/11 14:59:48;;;;;;;29.27;17.42;;;;;;;;;;5035758;28;20156;-77
2022/11/11 15:02:26;;;;;;;26.30;17.40;;;;;;;;;;5030244;28;20069;-78
2022/11/11 15:04:53;;;;;;;28.00;17.25;;;;;;;;;;4998548;28;20097;-79
2022/11/11 15:07:23;;;;;;;28.20;18.30;;;;;;;;;;5034391;28;20099;-79
2022/11/11 15:10:08;;;;;;;31.92;18.35;;;;;;;;;;5031754;28;20041;-79
2022/11/11 15:12:52;;;;;;;29.00;17.25;;;;;;;;;;5038178;28;20053;-78
2022/11/11 15:15:27;;;;;;;28.08;18.08;;;;;;;;;;5036289;28;20042;-78
2022/11/11 15:18:11;;;;;;;27.92;17.58;;;;;;;;;;5036877;28;20448;-78
2022/11/11 15:20:56;;;;;;;29.10;18.13;;;;;;;;;;5031589;28;20072;-82
2022/11/11 15:23:31;;;;;;;28.52;16.80;;;;;;;;;;5025792;28;20112;-78
2022/11/11 15:25:57;;;;;;;27.52;17.98;;;;;;;;;;5039470;28;20041;-79
2022/11/11 15:28:43;;;;;;;28.98;17.65;;;;;;;;;;5026815;28;20384;-78
2022/11/11 15:31:22;;;;;;;26.27;17.50;;;;;;;;;;5022488;28;20052;-79
2022/11/11 15:33:54;;;;;;;28.35;18.38;;;;;;;;;;5023795;28;20043;-78
2022/11/11 15:36:20;;;;;;;29.20;17.48;;;;;;;;;;5041418;28;20448;-78
2022/11/11 15:38:46;;;;;;;26.92;17.73;;;;;;;;;;5034695;28;20526;-78
2022/11/11 15:41:24;;;;;;;27.67;16.83;;;;;;;;;;5035250;28;20124;-79
2022/11/11 15:43:50;;;;;;;28.40;18.38;;;;;;;;;;5034459;28;20042;-78
2022/11/11 15:46:22;;;;;;;26.00;18.02;;;;;;;;;;5025168;28;20092;-78
2022/11/11 15:48:50;;;;;;;28.30;18.48;;;;;;;;;;5034993;28;20091;-78
2022/11/11 15:51:32;;;;;;;29.92;17.40;;;;;;;;;;5005855;28;20084;-78
2022/11/11 15:54:10;;;;;;;26.75;18.63;;;;;;;;;;5035152;28;20049;-78